Time;durP1;ratioP1;P1;durP2;ratioP2;P2;SDS_P1;SDS_P2;PMS_P1;PMS_P2;Temp;Humidity;BMP_temperature;BMP_pressure;BME280_temperature;BME280_humidity;BME280_pressure;Samples;Min_cycle;Max_cycle;Signal;HPM_P1;HPM_P2
2022/08/18 00:00:12;;;;;;;0.00;0.00;;;;;;;;;;5047746;28;20024;-59
2022/08/18 00:02:38;;;;;;;0.00;0.00;;;;;;;;;;5048173;28;20028;-58
2022/08/18 00:05:04;;;;;;;0.00;0.00;;;;;;;;;;5047513;28;20024;-58
2022/08/18 00:07:30;;;;;;;0.00;0.00;;;;;;;;;;5048651;28;20406;-59
2022/08/18 00:09:57;;;;;;;0.00;0.00;;;;;;;;;;5047923;28;20102;-57
2022/08/18 00:12:24;;;;;;;0.00;0.00;;;;;;;;;;5048260;28;20434;-58
2022/08/18 00:14:50;;;;;;;0.00;0.00;;;;;;;;;;5048109;28;20021;-59
2022/08/18 00:17:16;;;;;;;0.00;0.00;;;;;;;;;;5047810;28;20048;-59
2022/08/18 00:19:41;;;;;;;0.00;0.00;;;;;;;;;;5048179;28;20127;-59
2022/08/18 00:22:07;;;;;;;0.00;0.00;;;;;;;;;;5047879;28;20032;-60
2022/08/18 00:24:32;;;;;;;0.35;0.35;;;;;;;;;;5048440;28;20474;-59
2022/08/18 00:26:57;;;;;;;0.00;0.00;;;;;;;;;;5048831;28;20013;-59
2022/08/18 00:29:23;;;;;;;0.00;0.00;;;;;;;;;;5048153;28;20409;-58
2022/08/18 00:31:48;;;;;;;0.00;0.00;;;;;;;;;;5048474;28;20025;-58
2022/08/18 00:34:14;;;;;;;0.00;0.00;;;;;;;;;;5048082;28;20020;-58
2022/08/18 00:36:39;;;;;;;0.00;0.00;;;;;;;;;;5050214;28;20025;-58
2022/08/18 00:39:05;;;;;;;0.00;0.00;;;;;;;;;;5051061;28;20075;-57
2022/08/18 00:41:30;;;;;;;0.00;0.00;;;;;;;;;;5052099;28;20033;-58
2022/08/18 00:43:57;;;;;;;0.00;0.00;;;;;;;;;;5051093;28;20044;-59
2022/08/18 00:46:27;;;;;;;0.00;0.00;;;;;;;;;;5051662;28;20681;-59
2022/08/18 00:48:53;;;;;;;0.75;0.75;;;;;;;;;;5051679;28;20371;-58
2022/08/18 00:51:30;;;;;;;0.00;0.00;;;;;;;;;;5050248;28;20032;-59
2022/08/18 00:54:01;;;;;;;0.00;0.00;;;;;;;;;;5050321;28;20021;-58
2022/08/18 00:56:30;;;;;;;0.00;0.00;;;;;;;;;;5050436;28;20041;-59
2022/08/18 00:58:59;;;;;;;0.00;0.00;;;;;;;;;;5051178;28;20450;-58
2022/08/18 01:01:24;;;;;;;;;;;;;;;;;;5051714;28;20112;-57
2022/08/18 01:03:53;;;;;;;2.13;2.03;;;;;;;;;;5051573;28;20427;-57
2022/08/18 01:06:31;;;;;;;0.00;0.00;;;;;;;;;;5050841;28;20059;-58
2022/08/18 01:08:56;;;;;;;0.00;0.00;;;;;;;;;;5049735;28;20036;-59
2022/08/18 01:11:21;;;;;;;0.00;0.00;;;;;;;;;;5051137;28;20457;-57
2022/08/18 01:13:47;;;;;;;0.00;0.00;;;;;;;;;;5051163;28;20545;-56
2022/08/18 01:21:50;;;;;;;0.17;0.17;;;;;;;;;;5051402;28;20094;-59
2022/08/18 01:24:17;;;;;;;0.00;0.00;;;;;;;;;;5051310;28;20025;-57
2022/08/18 01:26:48;;;;;;;0.00;0.00;;;;;;;;;;5050399;28;20021;-60
2022/08/18 01:29:13;;;;;;;0.40;0.40;;;;;;;;;;5050540;28;20427;-58
2022/08/18 01:31:40;;;;;;;0.00;0.00;;;;;;;;;;5050719;28;20057;-59
2022/08/18 01:34:06;;;;;;;0.00;0.00;;;;;;;;;;5050162;28;20028;-60
2022/08/18 01:36:33;;;;;;;0.00;0.00;;;;;;;;;;5050093;28;20037;-59
2022/08/18 01:38:59;;;;;;;0.28;0.28;;;;;;;;;;5050338;28;20033;-58
2022/08/18 01:41:25;;;;;;;0.00;0.00;;;;;;;;;;5050843;28;20473;-59
2022/08/18 01:43:50;;;;;;;0.00;0.00;;;;;;;;;;5050119;28;20029;-58
2022/08/18 01:46:19;;;;;;;0.00;0.00;;;;;;;;;;5050143;28;20025;-58
2022/08/18 01:48:44;;;;;;;0.00;0.00;;;;;;;;;;5049797;28;20020;-58
2022/08/18 01:51:11;;;;;;;0.00;0.00;;;;;;;;;;5049854;28;20525;-58
2022/08/18 01:53:37;;;;;;;0.00;0.00;;;;;;;;;;5049403;28;20016;-59
2022/08/18 01:56:05;;;;;;;0.00;0.00;;;;;;;;;;5049440;28;20512;-58
2022/08/18 01:58:31;;;;;;;0.00;0.00;;;;;;;;;;5050677;28;20032;-58
2022/08/18 02:01:00;;;;;;;0.00;0.00;;;;;;;;;;5049737;28;20078;-59
2022/08/18 02:03:27;;;;;;;0.28;0.28;;;;;;;;;;5050004;28;20032;-58
2022/08/18 02:05:55;;;;;;;0.00;0.00;;;;;;;;;;5049983;28;20045;-58
2022/08/18 02:08:20;;;;;;;0.00;0.00;;;;;;;;;;5050176;28;20025;-59
2022/08/18 02:10:46;;;;;;;0.00;0.00;;;;;;;;;;5050442;28;20029;-58
2022/08/18 02:13:11;;;;;;;0.00;0.00;;;;;;;;;;5049783;28;20086;-58
2022/08/18 02:15:37;;;;;;;0.00;0.00;;;;;;;;;;5050551;28;20029;-59
2022/08/18 02:18:02;;;;;;;0.00;0.00;;;;;;;;;;5049473;28;20028;-59
2022/08/18 02:20:27;;;;;;;0.05;0.03;;;;;;;;;;5049795;28;20497;-59
2022/08/18 02:22:52;;;;;;;0.00;0.00;;;;;;;;;;5048875;28;20036;-60
2022/08/18 02:25:18;;;;;;;0.00;0.00;;;;;;;;;;5047794;28;20036;-59
2022/08/18 02:27:43;;;;;;;0.28;0.28;;;;;;;;;;5048703;28;20021;-59
2022/08/18 02:30:10;;;;;;;0.00;0.00;;;;;;;;;;5049347;28;20040;-59
2022/08/18 02:32:36;;;;;;;0.00;0.00;;;;;;;;;;5049889;28;20021;-59
2022/08/18 02:35:02;;;;;;;0.00;0.00;;;;;;;;;;5049088;28;20522;-59
2022/08/18 02:37:27;;;;;;;0.00;0.00;;;;;;;;;;5050080;28;20052;-59
2022/08/18 02:39:52;;;;;;;0.00;0.00;;;;;;;;;;5049597;28;20114;-59
2022/08/18 02:42:17;;;;;;;0.00;0.00;;;;;;;;;;5049269;28;20029;-57
2022/08/18 02:44:43;;;;;;;0.00;0.00;;;;;;;;;;5049717;28;20029;-58
2022/08/18 02:47:08;;;;;;;0.10;0.10;;;;;;;;;;5049042;28;20025;-58
2022/08/18 02:49:35;;;;;;;0.00;0.00;;;;;;;;;;5048906;28;20035;-59
2022/08/18 02:52:00;;;;;;;0.00;0.00;;;;;;;;;;5048152;28;20025;-59
2022/08/18 02:54:26;;;;;;;0.00;0.00;;;;;;;;;;5050388;28;20074;-60
2022/08/18 02:56:52;;;;;;;0.57;0.57;;;;;;;;;;5050938;28;20040;-58
2022/08/18 02:59:18;;;;;;;0.00;0.00;;;;;;;;;;5049477;28;20271;-60
2022/08/18 03:01:45;;;;;;;0.00;0.00;;;;;;;;;;5049923;28;20032;-59
2022/08/18 03:04:13;;;;;;;0.00;0.00;;;;;;;;;;5049353;28;20036;-60
2022/08/18 03:06:38;;;;;;;0.00;0.00;;;;;;;;;;5051326;28;20021;-60
2022/08/18 03:09:04;;;;;;;0.00;0.00;;;;;;;;;;5049269;28;20024;-59
2022/08/18 03:11:29;;;;;;;0.00;0.00;;;;;;;;;;5049810;28;20040;-59
2022/08/18 03:13:55;;;;;;;0.00;0.00;;;;;;;;;;5051153;28;20017;-59
2022/08/18 03:16:23;;;;;;;0.00;0.00;;;;;;;;;;5048953;28;20044;-60
2022/08/18 03:18:49;;;;;;;0.00;0.00;;;;;;;;;;5049866;28;20053;-59
2022/08/18 03:21:16;;;;;;;0.00;0.00;;;;;;;;;;5048413;28;20045;-60
2022/08/18 03:23:42;;;;;;;0.00;0.00;;;;;;;;;;5051085;28;20485;-60
2022/08/18 03:26:10;;;;;;;0.00;0.00;;;;;;;;;;5049233;28;20540;-59
2022/08/18 03:28:36;;;;;;;0.00;0.00;;;;;;;;;;5050764;28;20109;-59
2022/08/18 03:31:01;;;;;;;0.00;0.00;;;;;;;;;;5050523;28;20091;-60
2022/08/18 03:33:26;;;;;;;0.00;0.00;;;;;;;;;;5049644;28;20029;-58
2022/08/18 03:35:51;;;;;;;0.00;0.00;;;;;;;;;;5049348;28;20473;-58
2022/08/18 03:38:17;;;;;;;0.00;0.00;;;;;;;;;;5050481;28;20020;-58
2022/08/18 03:40:42;;;;;;;0.00;0.00;;;;;;;;;;5049276;28;20163;-61
2022/08/18 03:43:07;;;;;;;0.00;0.00;;;;;;;;;;5049223;28;20082;-59
2022/08/18 03:45:33;;;;;;;0.00;0.00;;;;;;;;;;5049316;28;20382;-60
2022/08/18 03:47:59;;;;;;;0.20;0.20;;;;;;;;;;5049097;28;20033;-58
2022/08/18 03:50:25;;;;;;;0.00;0.00;;;;;;;;;;5048605;28;20021;-60
2022/08/18 03:52:51;;;;;;;0.10;0.10;;;;;;;;;;5049184;28;20052;-60
2022/08/18 03:55:16;;;;;;;0.00;0.00;;;;;;;;;;5050156;28;20049;-60
2022/08/18 03:57:42;;;;;;;0.00;0.00;;;;;;;;;;5050792;28;20079;-60
2022/08/18 04:00:08;;;;;;;0.00;0.00;;;;;;;;;;5048771;28;20063;-60
2022/08/18 04:02:33;;;;;;;0.00;0.00;;;;;;;;;;5049343;28;20078;-59
2022/08/18 04:04:59;;;;;;;0.00;0.00;;;;;;;;;;5050628;28;20025;-59
2022/08/18 04:07:24;;;;;;;0.00;0.00;;;;;;;;;;5048793;28;20014;-59
2022/08/18 04:09:49;;;;;;;0.00;0.00;;;;;;;;;;5048943;28;20378;-59
2022/08/18 04:12:15;;;;;;;0.00;0.00;;;;;;;;;;5051551;28;20024;-60
2022/08/18 04:14:41;;;;;;;0.13;0.13;;;;;;;;;;5053045;28;20021;-59
2022/08/18 04:17:07;;;;;;;0.00;0.00;;;;;;;;;;5054247;28;20116;-60
2022/08/18 04:19:33;;;;;;;0.00;0.00;;;;;;;;;;5053084;28;20024;-59
2022/08/18 04:21:59;;;;;;;0.00;0.00;;;;;;;;;;5053234;28;20041;-60
2022/08/18 04:24:25;;;;;;;0.00;0.00;;;;;;;;;;5054431;28;20064;-60
2022/08/18 04:26:50;;;;;;;0.00;0.00;;;;;;;;;;5053040;28;20070;-59
2022/08/18 04:29:17;;;;;;;0.00;0.00;;;;;;;;;;5051782;28;20028;-59
2022/08/18 04:31:42;;;;;;;0.00;0.00;;;;;;;;;;5055849;28;20142;-60
2022/08/18 04:34:08;;;;;;;0.00;0.00;;;;;;;;;;5052519;28;20533;-60
2022/08/18 04:36:34;;;;;;;0.00;0.00;;;;;;;;;;5053250;28;20025;-60
2022/08/18 04:38:59;;;;;;;0.00;0.00;;;;;;;;;;5053700;28;20067;-59
2022/08/18 04:41:26;;;;;;;0.00;0.00;;;;;;;;;;5054384;28;20059;-59
2022/08/18 04:43:59;;;;;;;0.00;0.00;;;;;;;;;;5054017;28;20524;-60
2022/08/18 04:46:25;;;;;;;0.05;0.05;;;;;;;;;;5052998;28;20075;-60
2022/08/18 04:48:51;;;;;;;0.00;0.00;;;;;;;;;;5053434;28;20039;-60
2022/08/18 04:51:17;;;;;;;0.25;0.25;;;;;;;;;;5053041;28;20021;-60
2022/08/18 04:53:46;;;;;;;0.00;0.00;;;;;;;;;;5052270;28;20486;-60
2022/08/18 04:56:25;;;;;;;0.00;0.00;;;;;;;;;;5051250;28;20428;-60
2022/08/18 04:58:57;;;;;;;0.00;0.00;;;;;;;;;;5051623;28;20599;-60
2022/08/18 05:01:23;;;;;;;0.00;0.00;;;;;;;;;;5053097;28;20025;-59
2022/08/18 05:03:50;;;;;;;0.00;0.00;;;;;;;;;;5051732;28;20021;-59
2022/08/18 05:06:15;;;;;;;0.00;0.00;;;;;;;;;;5051429;28;20025;-60
2022/08/18 05:08:41;;;;;;;0.00;0.00;;;;;;;;;;5051902;28;20028;-60
2022/08/18 05:11:06;;;;;;;0.38;0.38;;;;;;;;;;5051463;28;20013;-60
2022/08/18 05:13:31;;;;;;;0.00;0.00;;;;;;;;;;5053448;28;20098;-60
2022/08/18 05:16:02;;;;;;;0.00;0.00;;;;;;;;;;5051857;28;20028;-59
2022/08/18 05:18:27;;;;;;;0.00;0.00;;;;;;;;;;5050288;28;20045;-59
2022/08/18 05:20:54;;;;;;;0.10;0.10;;;;;;;;;;5051558;28;20036;-59
2022/08/18 05:23:20;;;;;;;0.00;0.00;;;;;;;;;;5050744;28;20439;-59
2022/08/18 05:25:45;;;;;;;0.00;0.00;;;;;;;;;;5051867;28;20024;-59
2022/08/18 05:28:12;;;;;;;0.00;0.00;;;;;;;;;;5051046;28;20083;-59
2022/08/18 05:30:37;;;;;;;0.00;0.00;;;;;;;;;;5050292;28;20017;-59
2022/08/18 05:33:03;;;;;;;0.00;0.00;;;;;;;;;;5052668;28;20099;-60
2022/08/18 05:35:31;;;;;;;0.00;0.00;;;;;;;;;;5051030;28;20268;-60
2022/08/18 05:37:56;;;;;;;0.87;0.87;;;;;;;;;;5050256;28;20056;-60
2022/08/18 05:40:23;;;;;;;0.00;0.00;;;;;;;;;;5050886;28;20291;-59
2022/08/18 05:42:49;;;;;;;0.00;0.00;;;;;;;;;;5049977;28;20855;-59
2022/08/18 05:45:16;;;;;;;0.00;0.00;;;;;;;;;;5049777;28;20035;-59
2022/08/18 05:47:41;;;;;;;0.05;0.05;;;;;;;;;;5051015;28;20099;-59
2022/08/18 05:50:08;;;;;;;0.00;0.00;;;;;;;;;;5051253;28;20033;-59
2022/08/18 05:52:50;;;;;;;0.00;0.00;;;;;;;;;;5050961;28;20043;-59
2022/08/18 05:58:13;;;;;;;1.20;1.20;;;;;;;;;;5049895;28;20087;-59
2022/08/18 06:00:42;;;;;;;0.00;0.00;;;;;;;;;;5050256;28;20033;-60
2022/08/18 06:03:12;;;;;;;0.00;0.00;;;;;;;;;;5050619;28;20021;-60
2022/08/18 06:05:37;;;;;;;;;;;;;;;;;;5051110;28;20032;-60
2022/08/18 06:08:06;;;;;;;0.00;0.00;;;;;;;;;;5053636;28;19963;-60
2022/08/18 06:10:32;;;;;;;0.00;0.00;;;;;;;;;;5052645;28;20017;-59
2022/08/18 06:12:58;;;;;;;0.00;0.00;;;;;;;;;;5049924;28;20067;-60
2022/08/18 06:15:36;;;;;;;0.00;0.00;;;;;;;;;;5050608;28;20257;-59
2022/08/18 06:18:07;;;;;;;0.00;0.00;;;;;;;;;;5050511;28;20044;-60
2022/08/18 06:20:41;;;;;;;0.00;0.00;;;;;;;;;;5049722;28;20021;-59
2022/08/18 06:23:27;;;;;;;0.00;0.00;;;;;;;;;;5049956;28;20031;-59
2022/08/18 06:25:58;;;;;;;0.00;0.00;;;;;;;;;;5050284;28;20087;-58
2022/08/18 06:28:25;;;;;;;0.00;0.00;;;;;;;;;;5049666;28;20024;-59
2022/08/18 06:31:03;;;;;;;0.00;0.00;;;;;;;;;;5049973;28;20052;-59
2022/08/18 06:33:37;;;;;;;0.00;0.00;;;;;;;;;;5049625;28;20377;-60
2022/08/18 06:36:07;;;;;;;0.30;0.30;;;;;;;;;;5048874;28;20466;-58
2022/08/18 06:38:38;;;;;;;0.00;0.00;;;;;;;;;;5049888;28;20017;-60
2022/08/18 06:41:18;;;;;;;0.45;0.45;;;;;;;;;;5049389;28;20363;-60
2022/08/18 06:43:57;;;;;;;0.00;0.00;;;;;;;;;;5049751;28;20024;-60
2022/08/18 06:46:26;;;;;;;0.00;0.00;;;;;;;;;;5049489;28;20466;-61
2022/08/18 06:48:52;;;;;;;;;;;;;;;;;;5049929;28;20244;-60
2022/08/18 06:51:19;;;;;;;0.40;0.40;;;;;;;;;;5049320;28;19913;-59
2022/08/18 06:53:53;;;;;;;0.00;0.00;;;;;;;;;;5050293;28;20090;-60
2022/08/18 06:56:23;;;;;;;0.00;0.00;;;;;;;;;;5050678;28;20486;-60
2022/08/18 06:58:49;;;;;;;0.00;0.00;;;;;;;;;;5051141;28;20020;-59
2022/08/18 07:01:16;;;;;;;0.70;0.68;;;;;;;;;;5048619;28;20027;-60
2022/08/18 07:03:42;;;;;;;0.00;0.00;;;;;;;;;;5051095;28;20052;-59
2022/08/18 07:06:09;;;;;;;0.00;0.00;;;;;;;;;;5051048;28;20032;-60
2022/08/18 07:08:35;;;;;;;0.00;0.00;;;;;;;;;;5049180;28;20041;-58
2022/08/18 07:11:12;;;;;;;0.00;0.00;;;;;;;;;;5048722;28;20033;-60
2022/08/18 07:13:39;;;;;;;0.00;0.00;;;;;;;;;;5048195;28;20028;-60
2022/08/18 07:16:16;;;;;;;0.00;0.00;;;;;;;;;;5049340;28;20025;-59
2022/08/18 07:18:42;;;;;;;0.00;0.00;;;;;;;;;;5046652;28;20024;-59
2022/08/18 07:21:07;;;;;;;0.20;0.20;;;;;;;;;;5049125;28;20083;-60
2022/08/18 07:23:37;;;;;;;0.00;0.00;;;;;;;;;;5049022;28;20029;-59
2022/08/18 07:26:05;;;;;;;0.00;0.00;;;;;;;;;;5048179;28;20078;-58
2022/08/18 07:28:30;;;;;;;0.00;0.00;;;;;;;;;;5049051;28;20036;-58
2022/08/18 07:31:11;;;;;;;2.07;1.97;;;;;;;;;;5049393;28;20474;-58
2022/08/18 07:33:37;;;;;;;0.00;0.00;;;;;;;;;;5049408;28;20271;-60
2022/08/18 07:36:05;;;;;;;0.20;0.20;;;;;;;;;;5050439;28;20029;-60
2022/08/18 07:38:31;;;;;;;0.00;0.00;;;;;;;;;;5048215;28;20060;-60
2022/08/18 07:41:15;;;;;;;0.00;0.00;;;;;;;;;;5048419;28;20426;-60
2022/08/18 07:43:40;;;;;;;0.00;0.00;;;;;;;;;;5048223;28;20335;-59
2022/08/18 07:46:20;;;;;;;0.00;0.00;;;;;;;;;;5049994;28;20115;-60
2022/08/18 07:48:46;;;;;;;0.00;0.00;;;;;;;;;;5053132;28;20497;-60
2022/08/18 07:51:20;;;;;;;0.00;0.00;;;;;;;;;;5052637;28;20021;-59
2022/08/18 07:53:45;;;;;;;0.00;0.00;;;;;;;;;;5053109;28;20033;-59
2022/08/18 07:56:33;;;;;;;0.00;0.00;;;;;;;;;;5052797;28;20045;-58
2022/08/18 07:59:08;;;;;;;0.00;0.00;;;;;;;;;;5052546;28;20493;-60
2022/08/18 08:01:54;;;;;;;0.00;0.00;;;;;;;;;;5053018;28;20378;-60
2022/08/18 08:04:22;;;;;;;0.00;0.00;;;;;;;;;;5051917;28;20369;-61
2022/08/18 08:06:52;;;;;;;0.00;0.00;;;;;;;;;;5055491;28;20362;-60
2022/08/18 08:09:20;;;;;;;0.00;0.00;;;;;;;;;;5052040;28;20029;-60
2022/08/18 08:11:46;;;;;;;0.00;0.00;;;;;;;;;;5053125;28;20494;-60
2022/08/18 08:14:26;;;;;;;0.00;0.00;;;;;;;;;;5052816;28;20025;-60
2022/08/18 08:16:52;;;;;;;0.88;0.88;;;;;;;;;;5052069;28;20484;-59
2022/08/18 08:19:32;;;;;;;0.00;0.00;;;;;;;;;;5052222;28;20091;-60
2022/08/18 08:22:04;;;;;;;0.00;0.00;;;;;;;;;;5053918;28;20617;-61
2022/08/18 08:24:39;;;;;;;0.00;0.00;;;;;;;;;;5051433;28;20381;-61
2022/08/18 08:27:16;;;;;;;0.00;0.00;;;;;;;;;;5053617;28;20155;-60
2022/08/18 08:29:45;;;;;;;0.30;0.30;;;;;;;;;;5052622;28;20025;-60
2022/08/18 08:32:12;;;;;;;0.00;0.00;;;;;;;;;;5055282;28;20098;-60
2022/08/18 08:34:38;;;;;;;0.00;0.00;;;;;;;;;;5052347;28;20082;-60
2022/08/18 08:37:05;;;;;;;0.00;0.00;;;;;;;;;;5051995;28;20505;-60
2022/08/18 08:39:56;;;;;;;0.00;0.00;;;;;;;;;;5050263;28;20109;-60
2022/08/18 08:42:36;;;;;;;0.00;0.00;;;;;;;;;;5041815;28;20039;-60
2022/08/18 08:45:14;;;;;;;0.75;0.75;;;;;;;;;;5053373;28;20028;-60
2022/08/18 08:48:00;;;;;;;0.00;0.00;;;;;;;;;;5050795;28;20037;-59
2022/08/18 08:50:27;;;;;;;0.00;0.00;;;;;;;;;;5052647;28;20040;-61
2022/08/18 08:53:04;;;;;;;0.00;0.00;;;;;;;;;;5050641;28;20074;-60
2022/08/18 08:55:33;;;;;;;0.00;0.00;;;;;;;;;;5051107;28;20128;-61
2022/08/18 08:58:04;;;;;;;0.00;0.00;;;;;;;;;;5051707;28;20033;-60
2022/08/18 09:00:30;;;;;;;0.88;0.88;;;;;;;;;;5050074;28;20029;-61
2022/08/18 09:03:09;;;;;;;0.00;0.00;;;;;;;;;;5053485;28;20021;-60
2022/08/18 09:05:55;;;;;;;0.00;0.00;;;;;;;;;;5049170;28;20025;-59
2022/08/18 09:08:27;;;;;;;0.28;0.25;;;;;;;;;;5047193;28;20040;-61
2022/08/18 09:10:56;;;;;;;0.00;0.00;;;;;;;;;;5052618;28;20017;-59
2022/08/18 09:13:40;;;;;;;0.90;0.90;;;;;;;;;;5051435;28;20036;-60
2022/08/18 09:16:13;;;;;;;0.00;0.00;;;;;;;;;;5050313;28;20025;-59
2022/08/18 09:18:47;;;;;;;1.10;1.10;;;;;;;;;;5050173;28;20120;-59
2022/08/18 09:21:31;;;;;;;0.15;0.15;;;;;;;;;;5050308;28;20028;-60
2022/08/18 09:24:25;;;;;;;0.10;0.10;;;;;;;;;;5051617;28;20029;-60
2022/08/18 09:26:51;;;;;;;0.10;0.10;;;;;;;;;;5046195;28;20051;-59
2022/08/18 09:29:22;;;;;;;0.30;0.30;;;;;;;;;;5050692;28;20017;-60
2022/08/18 09:31:47;;;;;;;0.35;0.35;;;;;;;;;;5051036;28;20056;-60
2022/08/18 09:34:16;;;;;;;1.45;1.20;;;;;;;;;;5050441;28;20040;-61
2022/08/18 09:36:52;;;;;;;0.00;0.00;;;;;;;;;;5051191;28;20112;-60
2022/08/18 09:42:26;;;;;;;0.75;0.35;;;;;;;;;;5052566;28;20029;-60
2022/08/18 09:44:51;;;;;;;3.60;3.30;;;;;;;;;;5049183;28;20061;-60
2022/08/18 09:47:19;;;;;;;0.50;0.50;;;;;;;;;;5050051;28;20110;-60
2022/08/18 09:49:52;;;;;;;0.00;0.00;;;;;;;;;;5050523;28;20083;-60
2022/08/18 09:52:38;;;;;;;0.88;0.88;;;;;;;;;;5051672;28;20032;-61
2022/08/18 09:55:26;;;;;;;0.20;0.20;;;;;;;;;;5046454;28;20029;-61
2022/08/18 09:58:11;;;;;;;3.10;2.88;;;;;;;;;;5050207;28;20103;-60
2022/08/18 10:00:37;;;;;;;0.15;0.15;;;;;;;;;;5049646;28;20035;-60
2022/08/18 10:03:09;;;;;;;3.00;2.90;;;;;;;;;;5050229;28;20370;-60
2022/08/18 10:05:35;;;;;;;0.20;0.20;;;;;;;;;;5049063;28;20534;-60
2022/08/18 10:08:23;;;;;;;0.68;0.68;;;;;;;;;;5051731;28;20095;-60
2022/08/18 10:11:03;;;;;;;0.40;0.40;;;;;;;;;;5049934;28;20013;-60
2022/08/18 10:13:29;;;;;;;7.30;2.00;;;;;;;;;;5049774;28;20056;-59
2022/08/18 10:16:13;;;;;;;2.13;1.25;;;;;;;;;;5050173;28;20044;-60
2022/08/18 10:18:38;;;;;;;0.00;0.00;;;;;;;;;;5049589;28;20096;-60
2022/08/18 10:21:18;;;;;;;0.13;0.13;;;;;;;;;;5050138;28;20200;-60
2022/08/18 10:23:43;;;;;;;1.38;1.27;;;;;;;;;;5048851;28;20075;-61
2022/08/18 10:26:27;;;;;;;2.53;2.22;;;;;;;;;;5049833;28;20029;-59
2022/08/18 10:28:54;;;;;;;0.30;0.30;;;;;;;;;;5049467;28;21996;-60
2022/08/18 10:31:19;;;;;;;0.63;0.63;;;;;;;;;;5049349;28;20466;-60
2022/08/18 10:33:53;;;;;;;0.10;0.10;;;;;;;;;;5049522;28;20032;-60
2022/08/18 10:36:37;;;;;;;0.03;0.03;;;;;;;;;;5048989;28;20287;-59
2022/08/18 10:39:08;;;;;;;0.68;0.65;;;;;;;;;;5049553;28;20045;-60
2022/08/18 10:41:35;;;;;;;0.00;0.00;;;;;;;;;;5049222;28;20017;-59
2022/08/18 10:44:02;;;;;;;3.70;1.83;;;;;;;;;;5048893;28;20025;-59
2022/08/18 10:46:31;;;;;;;0.43;0.38;;;;;;;;;;5048430;28;20123;-59
2022/08/18 10:48:58;;;;;;;0.20;0.20;;;;;;;;;;5049963;28;20028;-59
2022/08/18 10:51:38;;;;;;;5.55;5.18;;;;;;;;;;5049293;28;20032;-59
2022/08/18 10:54:15;;;;;;;1.63;1.52;;;;;;;;;;5049368;28;20474;-61
2022/08/18 10:56:45;;;;;;;0.00;0.00;;;;;;;;;;5049190;28;20037;-59
2022/08/18 10:59:11;;;;;;;2.60;2.50;;;;;;;;;;5051112;28;20085;-60
2022/08/18 11:01:54;;;;;;;2.50;0.97;;;;;;;;;;5048416;28;20025;-59
2022/08/18 11:04:25;;;;;;;0.03;0.03;;;;;;;;;;5048038;28;20259;-60
2022/08/18 11:06:55;;;;;;;0.00;0.00;;;;;;;;;;5050043;28;20394;-59
2022/08/18 11:09:21;;;;;;;0.00;0.00;;;;;;;;;;5048867;28;20080;-60
2022/08/18 11:11:50;;;;;;;0.00;0.00;;;;;;;;;;5047952;28;20033;-60
2022/08/18 11:14:25;;;;;;;0.00;0.00;;;;;;;;;;5049682;28;20067;-60
2022/08/18 11:17:09;;;;;;;0.55;0.40;;;;;;;;;;5049063;28;20259;-60
2022/08/18 11:19:37;;;;;;;0.00;0.00;;;;;;;;;;5047386;28;20047;-59
2022/08/18 11:22:02;;;;;;;0.00;0.00;;;;;;;;;;5047210;28;20024;-60
2022/08/18 11:24:30;;;;;;;0.57;0.57;;;;;;;;;;5048018;28;20029;-61
2022/08/18 11:26:56;;;;;;;0.00;0.00;;;;;;;;;;5049316;28;20110;-61
2022/08/18 11:29:36;;;;;;;2.45;2.35;;;;;;;;;;5047567;28;20355;-59
2022/08/18 11:32:04;;;;;;;1.35;1.33;;;;;;;;;;5048304;28;20461;-60
2022/08/18 11:34:34;;;;;;;2.70;0.77;;;;;;;;;;5047262;28;20096;-60
2022/08/18 11:37:00;;;;;;;1.75;0.70;;;;;;;;;;5047342;28;20379;-60
2022/08/18 11:39:27;;;;;;;7.43;4.68;;;;;;;;;;5047756;28;20025;-60
2022/08/18 11:41:52;;;;;;;6.35;3.13;;;;;;;;;;5049189;28;20052;-58
2022/08/18 11:44:23;;;;;;;3.50;3.40;;;;;;;;;;5048386;28;20029;-60
2022/08/18 11:46:53;;;;;;;2.38;2.28;;;;;;;;;;5048361;28;20056;-60
2022/08/18 11:49:24;;;;;;;0.10;0.10;;;;;;;;;;5048106;28;20031;-60
2022/08/18 11:51:55;;;;;;;0.95;0.90;;;;;;;;;;5048487;28;20021;-58
2022/08/18 11:54:21;;;;;;;7.40;6.78;;;;;;;;;;5046551;28;20053;-60
2022/08/18 11:56:47;;;;;;;12.65;6.80;;;;;;;;;;5046653;28;20041;-58
2022/08/18 11:59:24;;;;;;;6.38;5.82;;;;;;;;;;5047997;28;20017;-60
2022/08/18 12:01:53;;;;;;;9.55;8.45;;;;;;;;;;5048326;28;20382;-59
2022/08/18 12:04:19;;;;;;;2.03;1.92;;;;;;;;;;5048298;28;20108;-59
2022/08/18 12:07:02;;;;;;;2.22;2.13;;;;;;;;;;5047141;28;20108;-59
2022/08/18 12:09:39;;;;;;;2.22;2.22;;;;;;;;;;5047348;28;20029;-59
2022/08/18 12:12:25;;;;;;;7.80;7.13;;;;;;;;;;5048223;28;20021;-59
2022/08/18 12:14:50;;;;;;;0.00;0.00;;;;;;;;;;5048165;28;20056;-59
2022/08/18 12:17:16;;;;;;;3.35;3.08;;;;;;;;;;5047936;28;20506;-59
2022/08/18 12:19:41;;;;;;;2.15;2.05;;;;;;;;;;5051214;28;20024;-61
2022/08/18 12:22:16;;;;;;;4.10;3.83;;;;;;;;;;5055680;28;20090;-58
2022/08/18 12:24:41;;;;;;;4.65;4.32;;;;;;;;;;5059718;28;20279;-59
2022/08/18 12:27:07;;;;;;;1.75;1.65;;;;;;;;;;5065819;28;20051;-60
2022/08/18 12:29:33;;;;;;;2.72;2.42;;;;;;;;;;5057902;28;20434;-59
2022/08/18 12:31:58;;;;;;;6.47;5.45;;;;;;;;;;5054528;28;20021;-60
2022/08/18 12:34:25;;;;;;;15.80;7.93;;;;;;;;;;5061188;28;20435;-61
2022/08/18 12:36:50;;;;;;;0.00;0.00;;;;;;;;;;5062111;28;20271;-60
2022/08/18 12:39:16;;;;;;;1.75;1.65;;;;;;;;;;5065045;28;20017;-60
2022/08/18 12:41:42;;;;;;;3.90;1.73;;;;;;;;;;5067425;28;20044;-60
2022/08/18 12:44:07;;;;;;;2.90;2.70;;;;;;;;;;5059992;28;20024;-60
2022/08/18 12:46:32;;;;;;;2.77;1.30;;;;;;;;;;5057034;28;20023;-60
2022/08/18 12:48:57;;;;;;;3.83;2.13;;;;;;;;;;5065249;28;20620;-60
2022/08/18 12:51:23;;;;;;;4.43;4.05;;;;;;;;;;5056534;28;20752;-60
2022/08/18 12:53:48;;;;;;;0.00;0.00;;;;;;;;;;5063958;28;20370;-61
2022/08/18 12:56:19;;;;;;;0.90;0.65;;;;;;;;;;5055294;28;20396;-59
2022/08/18 12:58:44;;;;;;;1.23;0.52;;;;;;;;;;5058676;28;20017;-59
2022/08/18 13:01:10;;;;;;;1.50;1.48;;;;;;;;;;5060163;28;20039;-61
2022/08/18 13:03:35;;;;;;;3.40;2.40;;;;;;;;;;5059129;28;20092;-59
2022/08/18 13:06:01;;;;;;;5.20;3.83;;;;;;;;;;5066809;28;20040;-59
2022/08/18 13:08:26;;;;;;;0.00;0.00;;;;;;;;;;5057363;28;20357;-60
2022/08/18 13:10:52;;;;;;;0.15;0.15;;;;;;;;;;5062857;28;20017;-60
2022/08/18 13:13:18;;;;;;;1.13;1.07;;;;;;;;;;5072367;28;20028;-60
2022/08/18 13:15:44;;;;;;;0.30;0.30;;;;;;;;;;5055137;28;20256;-60
2022/08/18 13:18:11;;;;;;;0.00;0.00;;;;;;;;;;5063572;28;20108;-60
2022/08/18 13:20:37;;;;;;;2.50;2.40;;;;;;;;;;5060365;28;20488;-60
2022/08/18 13:23:02;;;;;;;0.00;0.00;;;;;;;;;;5063233;28;20055;-59
2022/08/18 13:25:27;;;;;;;0.52;0.52;;;;;;;;;;5055038;28;20086;-59
2022/08/18 13:27:54;;;;;;;2.08;1.98;;;;;;;;;;5060322;28;20482;-59
2022/08/18 13:30:20;;;;;;;2.05;1.95;;;;;;;;;;5057950;28;20031;-61
2022/08/18 13:32:45;;;;;;;0.00;0.00;;;;;;;;;;5057246;28;20424;-60
2022/08/18 13:35:11;;;;;;;1.27;1.27;;;;;;;;;;5066594;28;20050;-60
2022/08/18 13:37:36;;;;;;;0.28;0.28;;;;;;;;;;5057481;28;20045;-60
2022/08/18 13:40:02;;;;;;;0.25;0.22;;;;;;;;;;5056619;28;20048;-59
2022/08/18 13:42:28;;;;;;;1.02;1.02;;;;;;;;;;5056212;28;20104;-59
2022/08/18 13:44:54;;;;;;;4.97;1.52;;;;;;;;;;5065968;28;20127;-60
2022/08/18 13:47:20;;;;;;;1.73;1.63;;;;;;;;;;5060681;28;20448;-60
2022/08/18 13:49:45;;;;;;;0.00;0.00;;;;;;;;;;5059220;28;20107;-60
2022/08/18 13:52:12;;;;;;;18.00;1.88;;;;;;;;;;5062271;28;20051;-61
2022/08/18 13:54:37;;;;;;;0.03;0.03;;;;;;;;;;5057954;28;20037;-61
2022/08/18 13:57:03;;;;;;;0.00;0.00;;;;;;;;;;5059550;28;20056;-60
2022/08/18 13:59:31;;;;;;;2.10;0.30;;;;;;;;;;5059578;28;20266;-59
2022/08/18 14:01:57;;;;;;;1.55;0.45;;;;;;;;;;5068675;28;20021;-61
2022/08/18 14:04:23;;;;;;;0.43;0.43;;;;;;;;;;5060357;28;20028;-61
2022/08/18 14:06:51;;;;;;;1.13;0.80;;;;;;;;;;5059808;28;20032;-60
2022/08/18 14:09:17;;;;;;;0.95;0.95;;;;;;;;;;5064048;28;20053;-60
2022/08/18 14:11:43;;;;;;;0.40;0.40;;;;;;;;;;5060886;28;20082;-60
2022/08/18 14:14:09;;;;;;;1.08;1.00;;;;;;;;;;5054406;28;20025;-59
2022/08/18 14:16:34;;;;;;;0.32;0.32;;;;;;;;;;5057296;28;20414;-60
2022/08/18 14:27:13;;;;;;;1.92;1.65;;;;;;;;;;5050688;28;20032;-65
2022/08/18 14:29:38;;;;;;;0.57;0.15;;;;;;;;;;5049712;28;20017;-64
2022/08/18 14:32:04;;;;;;;0.00;0.00;;;;;;;;;;5051631;28;20029;-64
2022/08/18 14:34:29;;;;;;;0.70;0.70;;;;;;;;;;5049527;28;20048;-65
2022/08/18 14:36:55;;;;;;;0.97;0.97;;;;;;;;;;5044790;28;20509;-66
2022/08/18 14:39:20;;;;;;;1.00;0.93;;;;;;;;;;5043871;28;20303;-64
2022/08/18 14:41:45;;;;;;;2.08;1.15;;;;;;;;;;5047498;28;20437;-65
2022/08/18 14:44:12;;;;;;;0.10;0.10;;;;;;;;;;5048586;28;20016;-65
2022/08/18 14:46:37;;;;;;;1.90;0.55;;;;;;;;;;5049798;28;20115;-65
2022/08/18 14:49:02;;;;;;;0.57;0.57;;;;;;;;;;5047680;28;20417;-64
2022/08/18 14:51:28;;;;;;;5.10;2.50;;;;;;;;;;5051359;28;20481;-64
2022/08/18 14:53:53;;;;;;;2.67;1.93;;;;;;;;;;5052877;28;20028;-63
2022/08/18 14:56:18;;;;;;;0.25;0.25;;;;;;;;;;5051116;28;20317;-62
2022/08/18 14:58:43;;;;;;;2.85;1.85;;;;;;;;;;5054039;28;20029;-62
2022/08/18 15:01:10;;;;;;;0.25;0.25;;;;;;;;;;5047597;28;20473;-64
2022/08/18 15:03:36;;;;;;;0.77;0.77;;;;;;;;;;5057282;28;20016;-61
2022/08/18 15:06:02;;;;;;;1.52;1.52;;;;;;;;;;5059934;28;20023;-62
2022/08/18 15:08:28;;;;;;;0.90;0.90;;;;;;;;;;5055773;28;20031;-61
2022/08/18 15:10:53;;;;;;;1.02;0.90;;;;;;;;;;5057886;28;20088;-62